sensor_id;sensor_type;location;lat;lon;timestamp;temperature;humidity
20288;DHT22;10303;51.960;8.372;2023-08-06T00:01:58;18.80;99.90
20288;DHT22;10303;51.960;8.372;2023-08-06T00:04:24;18.80;99.90
20288;DHT22;10303;51.960;8.372;2023-08-06T00:06:50;18.70;99.90
20288;DHT22;10303;51.960;8.372;2023-08-06T00:09:16;18.80;99.90
20288;DHT22;10303;51.960;8.372;2023-08-06T00:11:42;18.80;99.90
20288;DHT22;10303;51.960;8.372;2023-08-06T00:14:09;18.80;99.90
20288;DHT22;10303;51.960;8.372;2023-08-06T00:16:35;18.80;99.90
20288;DHT22;10303;51.960;8.372;2023-08-06T00:19:01;18.80;99.90
20288;DHT22;10303;51.960;8.372;2023-08-06T00:21:28;18.70;99.90
20288;DHT22;10303;51.960;8.372;2023-08-06T00:23:54;18.80;99.90
20288;DHT22;10303;51.960;8.372;2023-08-06T00:26:20;18.80;99.90
20288;DHT22;10303;51.960;8.372;2023-08-06T00:28:46;18.80;99.90
20288;DHT22;10303;51.960;8.372;2023-08-06T00:31:11;18.80;99.90
20288;DHT22;10303;51.960;8.372;2023-08-06T00:33:37;18.70;99.90
20288;DHT22;10303;51.960;8.372;2023-08-06T00:36:03;18.80;99.90
20288;DHT22;10303;51.960;8.372;2023-08-06T00:38:29;18.80;99.90
20288;DHT22;10303;51.960;8.372;2023-08-06T00:40:55;18.80;99.90
20288;DHT22;10303;51.960;8.372;2023-08-06T00:43:21;18.70;99.90
20288;DHT22;10303;51.960;8.372;2023-08-06T00:45:49;18.80;99.90
20288;DHT22;10303;51.960;8.372;2023-08-06T00:48:15;18.80;99.90
20288;DHT22;10303;51.960;8.372;2023-08-06T00:50:42;18.70;99.90
20288;DHT22;10303;51.960;8.372;2023-08-06T00:53:08;18.70;99.90
20288;DHT22;10303;51.960;8.372;2023-08-06T00:55:34;18.80;99.90
20288;DHT22;10303;51.960;8.372;2023-08-06T00:58:01;18.80;99.90
20288;DHT22;10303;51.960;8.372;2023-08-06T01:00:28;18.70;99.90
20288;DHT22;10303;51.960;8.372;2023-08-06T01:02:55;18.70;99.90
20288;DHT22;10303;51.960;8.372;2023-08-06T01:05:22;18.70;99.90
20288;DHT22;10303;51.960;8.372;2023-08-06T01:08:09;18.80;99.90
20288;DHT22;10303;51.960;8.372;2023-08-06T01:11:05;18.70;99.90
20288;DHT22;10303;51.960;8.372;2023-08-06T01:13:48;18.70;99.90
20288;DHT22;10303;51.960;8.372;2023-08-06T01:16:21;18.70;99.90
20288;DHT22;10303;51.960;8.372;2023-08-06T01:18:49;18.70;99.90
20288;DHT22;10303;51.960;8.372;2023-08-06T01:21:17;18.70;99.90
20288;DHT22;10303;51.960;8.372;2023-08-06T01:23:45;18.70;99.90
20288;DHT22;10303;51.960;8.372;2023-08-06T01:26:35;18.70;99.90
20288;DHT22;10303;51.960;8.372;2023-08-06T01:29:19;18.70;99.90
20288;DHT22;10303;51.960;8.372;2023-08-06T01:31:51;18.70;99.90
20288;DHT22;10303;51.960;8.372;2023-08-06T01:34:24;18.70;99.90
20288;DHT22;10303;51.960;8.372;2023-08-06T01:36:53;18.70;99.90
20288;DHT22;10303;51.960;8.372;2023-08-06T01:39:19;18.70;99.90
20288;DHT22;10303;51.960;8.372;2023-08-06T01:41:49;18.70;99.90
20288;DHT22;10303;51.960;8.372;2023-08-06T01:44:16;18.70;99.90
20288;DHT22;10303;51.960;8.372;2023-08-06T01:46:42;18.70;99.90
20288;DHT22;10303;51.960;8.372;2023-08-06T01:49:08;18.70;99.90
20288;DHT22;10303;51.960;8.372;2023-08-06T01:51:34;18.70;99.90
20288;DHT22;10303;51.960;8.372;2023-08-06T01:54:00;18.70;99.90
20288;DHT22;10303;51.960;8.372;2023-08-06T01:56:26;18.70;99.90
20288;DHT22;10303;51.960;8.372;2023-08-06T01:58:52;18.70;99.90
20288;DHT22;10303;51.960;8.372;2023-08-06T02:01:18;18.70;99.90
20288;DHT22;10303;51.960;8.372;2023-08-06T02:03:44;18.60;99.90
20288;DHT22;10303;51.960;8.372;2023-08-06T02:06:10;18.70;99.90
20288;DHT22;10303;51.960;8.372;2023-08-06T02:08:36;18.70;99.90
20288;DHT22;10303;51.960;8.372;2023-08-06T02:11:02;18.70;99.90
20288;DHT22;10303;51.960;8.372;2023-08-06T02:13:30;18.60;99.90
20288;DHT22;10303;51.960;8.372;2023-08-06T02:15:56;18.60;99.90
20288;DHT22;10303;51.960;8.372;2023-08-06T02:18:22;18.60;99.90
20288;DHT22;10303;51.960;8.372;2023-08-06T02:21:00;18.60;99.90
20288;DHT22;10303;51.960;8.372;2023-08-06T02:23:28;18.60;99.90
20288;DHT22;10303;51.960;8.372;2023-08-06T02:25:58;18.60;99.90
20288;DHT22;10303;51.960;8.372;2023-08-06T02:28:29;18.60;99.90
20288;DHT22;10303;51.960;8.372;2023-08-06T02:30:56;18.60;99.90
20288;DHT22;10303;51.960;8.372;2023-08-06T02:33:22;18.60;99.90
20288;DHT22;10303;51.960;8.372;2023-08-06T02:35:48;18.60;99.90
20288;DHT22;10303;51.960;8.372;2023-08-06T02:38:14;18.60;99.90
20288;DHT22;10303;51.960;8.372;2023-08-06T02:40:44;18.50;99.90
20288;DHT22;10303;51.960;8.372;2023-08-06T02:43:11;18.60;99.90
20288;DHT22;10303;51.960;8.372;2023-08-06T02:45:38;18.50;99.90
20288;DHT22;10303;51.960;8.372;2023-08-06T02:48:04;18.60;99.90
20288;DHT22;10303;51.960;8.372;2023-08-06T02:50:31;18.50;99.90
20288;DHT22;10303;51.960;8.372;2023-08-06T02:52:57;18.50;99.90
20288;DHT22;10303;51.960;8.372;2023-08-06T02:55:23;18.50;99.90
20288;DHT22;10303;51.960;8.372;2023-08-06T02:57:49;18.60;99.90
20288;DHT22;10303;51.960;8.372;2023-08-06T03:00:16;18.60;99.90
20288;DHT22;10303;51.960;8.372;2023-08-06T03:02:42;18.60;99.90
20288;DHT22;10303;51.960;8.372;2023-08-06T03:05:35;18.50;99.90
20288;DHT22;10303;51.960;8.372;2023-08-06T03:08:01;18.50;99.90
20288;DHT22;10303;51.960;8.372;2023-08-06T03:10:29;18.50;99.90
20288;DHT22;10303;51.960;8.372;2023-08-06T03:12:58;18.50;99.90
20288;DHT22;10303;51.960;8.372;2023-08-06T03:15:24;18.50;99.90
20288;DHT22;10303;51.960;8.372;2023-08-06T03:17:51;18.50;99.90
20288;DHT22;10303;51.960;8.372;2023-08-06T03:20:20;18.40;99.90
20288;DHT22;10303;51.960;8.372;2023-08-06T03:22:46;18.40;99.90
20288;DHT22;10303;51.960;8.372;2023-08-06T03:25:12;18.40;99.90
20288;DHT22;10303;51.960;8.372;2023-08-06T03:27:42;18.40;99.90
20288;DHT22;10303;51.960;8.372;2023-08-06T03:30:10;18.30;99.90
20288;DHT22;10303;51.960;8.372;2023-08-06T03:32:38;18.30;99.90
20288;DHT22;10303;51.960;8.372;2023-08-06T03:35:05;18.30;99.90
20288;DHT22;10303;51.960;8.372;2023-08-06T03:37:31;18.20;99.90
20288;DHT22;10303;51.960;8.372;2023-08-06T03:39:57;18.20;99.90
20288;DHT22;10303;51.960;8.372;2023-08-06T03:42:23;18.20;99.90
20288;DHT22;10303;51.960;8.372;2023-08-06T03:44:50;18.20;99.90
20288;DHT22;10303;51.960;8.372;2023-08-06T03:47:15;18.10;99.90
20288;DHT22;10303;51.960;8.372;2023-08-06T03:49:42;18.10;99.90
20288;DHT22;10303;51.960;8.372;2023-08-06T03:52:09;18.10;99.90
20288;DHT22;10303;51.960;8.372;2023-08-06T03:54:35;18.10;99.90
20288;DHT22;10303;51.960;8.372;2023-08-06T03:57:01;18.00;99.90
20288;DHT22;10303;51.960;8.372;2023-08-06T03:59:27;18.00;99.90
20288;DHT22;10303;51.960;8.372;2023-08-06T04:01:55;18.00;99.90
20288;DHT22;10303;51.960;8.372;2023-08-06T04:04:22;17.90;99.90
20288;DHT22;10303;51.960;8.372;2023-08-06T04:06:48;17.90;99.90
20288;DHT22;10303;51.960;8.372;2023-08-06T04:09:14;17.90;99.90
20288;DHT22;10303;51.960;8.372;2023-08-06T04:11:40;17.80;99.90
20288;DHT22;10303;51.960;8.372;2023-08-06T04:14:08;17.80;99.90
20288;DHT22;10303;51.960;8.372;2023-08-06T04:16:34;17.80;99.90
20288;DHT22;10303;51.960;8.372;2023-08-06T04:19:01;17.80;99.90
20288;DHT22;10303;51.960;8.372;2023-08-06T04:21:27;17.80;99.90
20288;DHT22;10303;51.960;8.372;2023-08-06T04:23:53;17.70;99.90
20288;DHT22;10303;51.960;8.372;2023-08-06T04:26:19;17.70;99.90
20288;DHT22;10303;51.960;8.372;2023-08-06T04:28:45;17.70;99.90
20288;DHT22;10303;51.960;8.372;2023-08-06T04:31:11;17.60;99.90
20288;DHT22;10303;51.960;8.372;2023-08-06T04:33:39;17.60;99.90
20288;DHT22;10303;51.960;8.372;2023-08-06T04:36:09;17.60;99.90
20288;DHT22;10303;51.960;8.372;2023-08-06T04:38:35;17.60;99.90
20288;DHT22;10303;51.960;8.372;2023-08-06T04:41:02;17.60;99.90
20288;DHT22;10303;51.960;8.372;2023-08-06T04:43:31;17.60;99.90
20288;DHT22;10303;51.960;8.372;2023-08-06T04:45:57;17.60;99.90
20288;DHT22;10303;51.960;8.372;2023-08-06T04:48:23;17.60;99.90
20288;DHT22;10303;51.960;8.372;2023-08-06T04:50:50;17.60;99.90
20288;DHT22;10303;51.960;8.372;2023-08-06T04:53:16;17.60;99.90
20288;DHT22;10303;51.960;8.372;2023-08-06T04:55:43;17.60;99.90
20288;DHT22;10303;51.960;8.372;2023-08-06T04:58:09;17.60;99.90
20288;DHT22;10303;51.960;8.372;2023-08-06T05:00:36;17.60;99.90
20288;DHT22;10303;51.960;8.372;2023-08-06T05:03:02;17.60;99.90
20288;DHT22;10303;51.960;8.372;2023-08-06T05:05:28;17.60;99.90
20288;DHT22;10303;51.960;8.372;2023-08-06T05:07:56;17.60;99.90
20288;DHT22;10303;51.960;8.372;2023-08-06T05:10:25;17.60;99.90
20288;DHT22;10303;51.960;8.372;2023-08-06T05:12:51;17.60;99.90
20288;DHT22;10303;51.960;8.372;2023-08-06T05:15:18;17.60;99.90
20288;DHT22;10303;51.960;8.372;2023-08-06T05:17:44;17.60;99.90
20288;DHT22;10303;51.960;8.372;2023-08-06T05:20:10;17.60;99.90
20288;DHT22;10303;51.960;8.372;2023-08-06T05:22:37;17.60;99.90
20288;DHT22;10303;51.960;8.372;2023-08-06T05:25:03;17.70;99.90
20288;DHT22;10303;51.960;8.372;2023-08-06T05:27:30;17.70;99.90
20288;DHT22;10303;51.960;8.372;2023-08-06T05:29:56;17.70;99.90
20288;DHT22;10303;51.960;8.372;2023-08-06T05:32:22;17.80;99.90
20288;DHT22;10303;51.960;8.372;2023-08-06T05:34:48;17.80;99.90
20288;DHT22;10303;51.960;8.372;2023-08-06T05:37:14;17.80;99.90
20288;DHT22;10303;51.960;8.372;2023-08-06T05:39:40;17.90;99.90
20288;DHT22;10303;51.960;8.372;2023-08-06T05:42:06;17.90;99.90
20288;DHT22;10303;51.960;8.372;2023-08-06T05:44:32;18.00;99.90
20288;DHT22;10303;51.960;8.372;2023-08-06T05:46:58;18.00;99.90
20288;DHT22;10303;51.960;8.372;2023-08-06T05:49:24;18.10;99.90
20288;DHT22;10303;51.960;8.372;2023-08-06T05:51:50;18.10;99.90
20288;DHT22;10303;51.960;8.372;2023-08-06T05:54:19;18.10;99.90
20288;DHT22;10303;51.960;8.372;2023-08-06T05:56:45;18.10;99.90
20288;DHT22;10303;51.960;8.372;2023-08-06T05:59:11;18.20;99.90
20288;DHT22;10303;51.960;8.372;2023-08-06T06:01:37;18.30;99.90
20288;DHT22;10303;51.960;8.372;2023-08-06T06:04:03;18.30;99.90
20288;DHT22;10303;51.960;8.372;2023-08-06T06:06:29;18.30;99.90
20288;DHT22;10303;51.960;8.372;2023-08-06T06:08:55;18.40;99.90
20288;DHT22;10303;51.960;8.372;2023-08-06T06:11:21;18.50;99.90
20288;DHT22;10303;51.960;8.372;2023-08-06T06:13:50;18.50;99.90
20288;DHT22;10303;51.960;8.372;2023-08-06T06:16:16;18.50;99.90
20288;DHT22;10303;51.960;8.372;2023-08-06T06:18:43;18.60;99.90
20288;DHT22;10303;51.960;8.372;2023-08-06T06:21:10;18.70;99.90
20288;DHT22;10303;51.960;8.372;2023-08-06T06:23:36;18.70;99.90
20288;DHT22;10303;51.960;8.372;2023-08-06T06:26:02;18.80;99.90
20288;DHT22;10303;51.960;8.372;2023-08-06T06:28:28;18.90;99.90
20288;DHT22;10303;51.960;8.372;2023-08-06T06:31:00;18.90;99.90
20288;DHT22;10303;51.960;8.372;2023-08-06T06:33:27;19.00;99.90
20288;DHT22;10303;51.960;8.372;2023-08-06T06:35:53;19.10;99.90
20288;DHT22;10303;51.960;8.372;2023-08-06T06:38:19;19.10;99.90
20288;DHT22;10303;51.960;8.372;2023-08-06T06:40:54;19.20;99.90
20288;DHT22;10303;51.960;8.372;2023-08-06T06:43:21;19.30;99.90
20288;DHT22;10303;51.960;8.372;2023-08-06T06:45:47;19.30;99.90
20288;DHT22;10303;51.960;8.372;2023-08-06T06:48:17;19.40;99.90
20288;DHT22;10303;51.960;8.372;2023-08-06T06:50:47;19.50;99.90
20288;DHT22;10303;51.960;8.372;2023-08-06T06:53:14;19.50;99.90
20288;DHT22;10303;51.960;8.372;2023-08-06T06:55:40;19.60;99.90
20288;DHT22;10303;51.960;8.372;2023-08-06T06:58:06;19.70;99.90
20288;DHT22;10303;51.960;8.372;2023-08-06T07:00:32;19.70;99.90
20288;DHT22;10303;51.960;8.372;2023-08-06T07:02:58;19.80;99.90
20288;DHT22;10303;51.960;8.372;2023-08-06T07:05:24;19.90;99.90
20288;DHT22;10303;51.960;8.372;2023-08-06T07:07:49;20.00;99.90
20288;DHT22;10303;51.960;8.372;2023-08-06T07:10:17;20.10;99.90
20288;DHT22;10303;51.960;8.372;2023-08-06T07:12:43;20.10;99.90
20288;DHT22;10303;51.960;8.372;2023-08-06T07:15:10;20.20;99.90
20288;DHT22;10303;51.960;8.372;2023-08-06T07:17:36;20.30;99.90
20288;DHT22;10303;51.960;8.372;2023-08-06T07:20:02;20.40;99.90
20288;DHT22;10303;51.960;8.372;2023-08-06T07:22:29;20.50;99.90
20288;DHT22;10303;51.960;8.372;2023-08-06T07:24:55;20.60;99.90
20288;DHT22;10303;51.960;8.372;2023-08-06T07:27:21;20.60;99.90
20288;DHT22;10303;51.960;8.372;2023-08-06T07:29:47;20.80;99.90
20288;DHT22;10303;51.960;8.372;2023-08-06T07:32:14;20.80;99.90
20288;DHT22;10303;51.960;8.372;2023-08-06T07:34:39;20.90;99.90
20288;DHT22;10303;51.960;8.372;2023-08-06T07:37:05;21.00;99.90
20288;DHT22;10303;51.960;8.372;2023-08-06T07:39:31;21.10;99.90
20288;DHT22;10303;51.960;8.372;2023-08-06T07:41:57;21.20;99.90
20288;DHT22;10303;51.960;8.372;2023-08-06T07:44:23;21.30;99.90
20288;DHT22;10303;51.960;8.372;2023-08-06T07:46:50;21.40;99.90
20288;DHT22;10303;51.960;8.372;2023-08-06T07:49:16;21.40;99.90
20288;DHT22;10303;51.960;8.372;2023-08-06T07:51:42;21.50;99.90
20288;DHT22;10303;51.960;8.372;2023-08-06T07:54:08;21.60;99.90
20288;DHT22;10303;51.960;8.372;2023-08-06T07:56:34;21.70;99.90
20288;DHT22;10303;51.960;8.372;2023-08-06T07:59:02;21.80;99.90
20288;DHT22;10303;51.960;8.372;2023-08-06T08:01:28;21.80;99.90
20288;DHT22;10303;51.960;8.372;2023-08-06T08:03:54;21.90;99.90
20288;DHT22;10303;51.960;8.372;2023-08-06T08:06:20;22.00;99.90
20288;DHT22;10303;51.960;8.372;2023-08-06T08:08:46;22.10;99.90
20288;DHT22;10303;51.960;8.372;2023-08-06T08:11:12;22.20;99.90
20288;DHT22;10303;51.960;8.372;2023-08-06T08:13:38;22.20;99.90
20288;DHT22;10303;51.960;8.372;2023-08-06T08:16:04;22.30;99.90
20288;DHT22;10303;51.960;8.372;2023-08-06T08:18:30;22.40;99.90
20288;DHT22;10303;51.960;8.372;2023-08-06T08:20:57;22.50;99.90
20288;DHT22;10303;51.960;8.372;2023-08-06T08:23:23;22.60;99.90
20288;DHT22;10303;51.960;8.372;2023-08-06T08:25:49;22.70;99.90
20288;DHT22;10303;51.960;8.372;2023-08-06T08:28:15;22.80;99.90
20288;DHT22;10303;51.960;8.372;2023-08-06T08:30:41;22.80;99.90
20288;DHT22;10303;51.960;8.372;2023-08-06T08:33:07;22.90;99.90
20288;DHT22;10303;51.960;8.372;2023-08-06T08:35:34;23.00;99.90
20288;DHT22;10303;51.960;8.372;2023-08-06T08:38:02;23.10;99.90
20288;DHT22;10303;51.960;8.372;2023-08-06T08:40:32;23.20;99.90
20288;DHT22;10303;51.960;8.372;2023-08-06T08:43:00;23.20;99.90
20288;DHT22;10303;51.960;8.372;2023-08-06T08:45:29;23.30;99.90
20288;DHT22;10303;51.960;8.372;2023-08-06T08:47:55;23.40;99.90
20288;DHT22;10303;51.960;8.372;2023-08-06T08:50:22;23.40;99.90
20288;DHT22;10303;51.960;8.372;2023-08-06T08:52:50;23.40;99.90
20288;DHT22;10303;51.960;8.372;2023-08-06T08:55:16;23.40;99.90
20288;DHT22;10303;51.960;8.372;2023-08-06T08:57:43;23.40;99.90
20288;DHT22;10303;51.960;8.372;2023-08-06T09:00:09;23.50;99.90
20288;DHT22;10303;51.960;8.372;2023-08-06T09:02:38;23.50;99.90
20288;DHT22;10303;51.960;8.372;2023-08-06T09:05:06;23.50;99.90
20288;DHT22;10303;51.960;8.372;2023-08-06T09:07:42;23.50;99.90
20288;DHT22;10303;51.960;8.372;2023-08-06T09:10:11;23.50;99.90
20288;DHT22;10303;51.960;8.372;2023-08-06T09:12:39;23.50;99.90
20288;DHT22;10303;51.960;8.372;2023-08-06T09:15:07;23.60;99.90
20288;DHT22;10303;51.960;8.372;2023-08-06T09:17:33;23.60;99.90
20288;DHT22;10303;51.960;8.372;2023-08-06T09:19:59;23.60;99.90
20288;DHT22;10303;51.960;8.372;2023-08-06T09:22:34;23.60;99.90
20288;DHT22;10303;51.960;8.372;2023-08-06T09:25:01;23.60;99.90
20288;DHT22;10303;51.960;8.372;2023-08-06T09:27:27;23.70;99.90
20288;DHT22;10303;51.960;8.372;2023-08-06T09:29:52;23.80;99.90
20288;DHT22;10303;51.960;8.372;2023-08-06T09:32:18;23.90;99.90
20288;DHT22;10303;51.960;8.372;2023-08-06T09:34:46;24.00;99.90
20288;DHT22;10303;51.960;8.372;2023-08-06T09:37:12;24.10;99.90
20288;DHT22;10303;51.960;8.372;2023-08-06T09:39:41;24.30;99.90
20288;DHT22;10303;51.960;8.372;2023-08-06T09:42:07;24.30;99.90
20288;DHT22;10303;51.960;8.372;2023-08-06T09:44:33;24.50;99.90
20288;DHT22;10303;51.960;8.372;2023-08-06T09:47:02;24.60;99.90
20288;DHT22;10303;51.960;8.372;2023-08-06T09:51:59;24.80;99.90
20288;DHT22;10303;51.960;8.372;2023-08-06T09:54:26;25.00;99.90
20288;DHT22;10303;51.960;8.372;2023-08-06T09:56:57;25.10;99.90
20288;DHT22;10303;51.960;8.372;2023-08-06T09:59:24;25.30;99.90
20288;DHT22;10303;51.960;8.372;2023-08-06T10:01:51;25.40;99.90
20288;DHT22;10303;51.960;8.372;2023-08-06T10:04:17;25.50;99.90
20288;DHT22;10303;51.960;8.372;2023-08-06T10:06:47;25.60;99.90
20288;DHT22;10303;51.960;8.372;2023-08-06T10:09:16;25.60;99.90
20288;DHT22;10303;51.960;8.372;2023-08-06T10:11:42;25.80;99.90
20288;DHT22;10303;51.960;8.372;2023-08-06T10:14:20;25.80;99.90
20288;DHT22;10303;51.960;8.372;2023-08-06T10:16:49;25.90;99.90
20288;DHT22;10303;51.960;8.372;2023-08-06T10:19:17;26.00;99.90
20288;DHT22;10303;51.960;8.372;2023-08-06T10:22:13;26.10;99.90
20288;DHT22;10303;51.960;8.372;2023-08-06T10:24:56;26.30;99.90
20288;DHT22;10303;51.960;8.372;2023-08-06T10:27:35;26.40;99.90
20288;DHT22;10303;51.960;8.372;2023-08-06T10:30:21;26.60;99.90
20288;DHT22;10303;51.960;8.372;2023-08-06T10:33:01;26.80;99.90
20288;DHT22;10303;51.960;8.372;2023-08-06T10:35:36;26.90;99.90
20288;DHT22;10303;51.960;8.372;2023-08-06T10:38:18;27.20;99.90
20288;DHT22;10303;51.960;8.372;2023-08-06T10:43:29;27.60;99.90
20288;DHT22;10303;51.960;8.372;2023-08-06T10:45:58;27.80;99.90
20288;DHT22;10303;51.960;8.372;2023-08-06T10:48:34;28.00;99.90
20288;DHT22;10303;51.960;8.372;2023-08-06T10:51:11;28.10;99.90
20288;DHT22;10303;51.960;8.372;2023-08-06T10:53:43;28.20;99.90
20288;DHT22;10303;51.960;8.372;2023-08-06T10:56:19;28.20;99.90
20288;DHT22;10303;51.960;8.372;2023-08-06T10:58:52;28.20;99.90
20288;DHT22;10303;51.960;8.372;2023-08-06T11:01:21;28.20;99.90
20288;DHT22;10303;51.960;8.372;2023-08-06T11:03:49;28.20;99.90
20288;DHT22;10303;51.960;8.372;2023-08-06T11:06:23;28.30;99.90
20288;DHT22;10303;51.960;8.372;2023-08-06T11:08:52;28.40;99.90
20288;DHT22;10303;51.960;8.372;2023-08-06T11:11:20;28.50;99.90
20288;DHT22;10303;51.960;8.372;2023-08-06T11:13:50;28.50;99.90
20288;DHT22;10303;51.960;8.372;2023-08-06T11:16:24;28.50;99.90
20288;DHT22;10303;51.960;8.372;2023-08-06T11:18:50;28.50;99.90
20288;DHT22;10303;51.960;8.372;2023-08-06T11:21:21;28.40;99.90
20288;DHT22;10303;51.960;8.372;2023-08-06T11:23:51;28.20;99.90
20288;DHT22;10303;51.960;8.372;2023-08-06T11:26:21;28.10;99.90
20288;DHT22;10303;51.960;8.372;2023-08-06T11:28:49;28.00;99.90
20288;DHT22;10303;51.960;8.372;2023-08-06T11:31:24;27.90;99.90
20288;DHT22;10303;51.960;8.372;2023-08-06T11:33:51;27.70;99.90
20288;DHT22;10303;51.960;8.372;2023-08-06T11:36:36;27.60;99.90
20288;DHT22;10303;51.960;8.372;2023-08-06T11:39:06;27.40;99.90
20288;DHT22;10303;51.960;8.372;2023-08-06T11:41:33;27.30;99.90
20288;DHT22;10303;51.960;8.372;2023-08-06T11:43:59;27.20;99.90
20288;DHT22;10303;51.960;8.372;2023-08-06T11:46:25;27.00;99.90
20288;DHT22;10303;51.960;8.372;2023-08-06T11:48:52;27.00;99.90
20288;DHT22;10303;51.960;8.372;2023-08-06T11:51:26;26.80;99.90
20288;DHT22;10303;51.960;8.372;2023-08-06T11:53:55;26.70;99.90
20288;DHT22;10303;51.960;8.372;2023-08-06T11:56:22;26.60;99.90
20288;DHT22;10303;51.960;8.372;2023-08-06T11:58:49;26.60;99.90
20288;DHT22;10303;51.960;8.372;2023-08-06T12:01:15;26.50;99.90
20288;DHT22;10303;51.960;8.372;2023-08-06T12:03:41;26.40;99.90
20288;DHT22;10303;51.960;8.372;2023-08-06T12:06:07;26.40;99.90
20288;DHT22;10303;51.960;8.372;2023-08-06T12:08:34;26.40;99.90
20288;DHT22;10303;51.960;8.372;2023-08-06T12:11:00;26.40;99.90
20288;DHT22;10303;51.960;8.372;2023-08-06T12:13:26;26.30;99.90
20288;DHT22;10303;51.960;8.372;2023-08-06T12:15:55;26.30;99.90
20288;DHT22;10303;51.960;8.372;2023-08-06T12:18:23;26.30;99.90
20288;DHT22;10303;51.960;8.372;2023-08-06T12:20:49;26.20;99.90
20288;DHT22;10303;51.960;8.372;2023-08-06T12:23:15;26.20;99.90
20288;DHT22;10303;51.960;8.372;2023-08-06T12:25:42;26.20;99.90
20288;DHT22;10303;51.960;8.372;2023-08-06T12:28:10;26.20;99.90
20288;DHT22;10303;51.960;8.372;2023-08-06T12:30:37;26.20;99.90
20288;DHT22;10303;51.960;8.372;2023-08-06T12:33:07;26.20;99.90
20288;DHT22;10303;51.960;8.372;2023-08-06T12:35:33;26.10;99.90
20288;DHT22;10303;51.960;8.372;2023-08-06T12:37:59;26.10;99.90
20288;DHT22;10303;51.960;8.372;2023-08-06T12:40:26;26.10;99.90
20288;DHT22;10303;51.960;8.372;2023-08-06T12:42:52;26.00;99.90
20288;DHT22;10303;51.960;8.372;2023-08-06T12:45:19;26.00;99.90
20288;DHT22;10303;51.960;8.372;2023-08-06T12:47:46;26.00;99.90
20288;DHT22;10303;51.960;8.372;2023-08-06T12:50:14;25.90;99.90
20288;DHT22;10303;51.960;8.372;2023-08-06T12:52:40;25.90;99.90
20288;DHT22;10303;51.960;8.372;2023-08-06T12:55:07;25.90;99.90
20288;DHT22;10303;51.960;8.372;2023-08-06T12:57:33;25.80;99.90
20288;DHT22;10303;51.960;8.372;2023-08-06T13:00:00;25.70;99.90
20288;DHT22;10303;51.960;8.372;2023-08-06T13:02:26;25.70;99.90
20288;DHT22;10303;51.960;8.372;2023-08-06T13:04:55;25.50;99.90
20288;DHT22;10303;51.960;8.372;2023-08-06T13:07:21;25.50;99.90
20288;DHT22;10303;51.960;8.372;2023-08-06T13:09:47;25.40;99.90
20288;DHT22;10303;51.960;8.372;2023-08-06T13:12:13;25.20;99.90
20288;DHT22;10303;51.960;8.372;2023-08-06T13:14:39;25.10;99.90
20288;DHT22;10303;51.960;8.372;2023-08-06T13:17:05;25.00;99.90
20288;DHT22;10303;51.960;8.372;2023-08-06T13:19:33;24.80;99.90
20288;DHT22;10303;51.960;8.372;2023-08-06T13:22:01;24.60;99.90
20288;DHT22;10303;51.960;8.372;2023-08-06T13:24:30;24.50;99.90
20288;DHT22;10303;51.960;8.372;2023-08-06T13:26:57;24.40;99.90
20288;DHT22;10303;51.960;8.372;2023-08-06T13:29:23;24.20;99.90
20288;DHT22;10303;51.960;8.372;2023-08-06T13:31:50;24.10;99.90
20288;DHT22;10303;51.960;8.372;2023-08-06T13:34:16;24.00;99.90
20288;DHT22;10303;51.960;8.372;2023-08-06T13:36:42;23.80;99.90
20288;DHT22;10303;51.960;8.372;2023-08-06T13:39:08;23.70;99.90
20288;DHT22;10303;51.960;8.372;2023-08-06T13:41:34;23.60;99.90
20288;DHT22;10303;51.960;8.372;2023-08-06T13:44:00;23.60;99.90
20288;DHT22;10303;51.960;8.372;2023-08-06T13:46:26;23.40;99.90
20288;DHT22;10303;51.960;8.372;2023-08-06T13:48:52;23.40;99.90
20288;DHT22;10303;51.960;8.372;2023-08-06T13:51:18;23.30;99.90
20288;DHT22;10303;51.960;8.372;2023-08-06T13:53:45;23.20;99.90
20288;DHT22;10303;51.960;8.372;2023-08-06T13:56:11;23.20;99.90
20288;DHT22;10303;51.960;8.372;2023-08-06T13:58:38;23.10;99.90
20288;DHT22;10303;51.960;8.372;2023-08-06T14:01:04;23.00;99.90
20288;DHT22;10303;51.960;8.372;2023-08-06T14:03:32;22.90;99.90
20288;DHT22;10303;51.960;8.372;2023-08-06T14:05:58;22.90;99.90
20288;DHT22;10303;51.960;8.372;2023-08-06T14:08:24;22.80;99.90
20288;DHT22;10303;51.960;8.372;2023-08-06T14:10:51;22.80;99.90
20288;DHT22;10303;51.960;8.372;2023-08-06T14:13:18;22.70;99.90
20288;DHT22;10303;51.960;8.372;2023-08-06T14:15:44;22.60;99.90
20288;DHT22;10303;51.960;8.372;2023-08-06T14:18:16;22.60;99.90
20288;DHT22;10303;51.960;8.372;2023-08-06T14:20:43;22.60;99.90
20288;DHT22;10303;51.960;8.372;2023-08-06T14:23:09;22.60;99.90
20288;DHT22;10303;51.960;8.372;2023-08-06T14:25:39;22.50;99.90
20288;DHT22;10303;51.960;8.372;2023-08-06T14:28:05;22.50;99.90
20288;DHT22;10303;51.960;8.372;2023-08-06T14:30:32;22.40;99.90
20288;DHT22;10303;51.960;8.372;2023-08-06T14:32:59;22.40;99.90
20288;DHT22;10303;51.960;8.372;2023-08-06T14:35:26;22.40;99.90
20288;DHT22;10303;51.960;8.372;2023-08-06T14:37:52;22.40;99.90
20288;DHT22;10303;51.960;8.372;2023-08-06T14:40:18;22.60;99.90
20288;DHT22;10303;51.960;8.372;2023-08-06T14:42:44;22.40;99.90
20288;DHT22;10303;51.960;8.372;2023-08-06T14:45:10;22.30;99.90
20288;DHT22;10303;51.960;8.372;2023-08-06T14:47:36;22.30;99.90
20288;DHT22;10303;51.960;8.372;2023-08-06T14:50:02;22.30;99.90
20288;DHT22;10303;51.960;8.372;2023-08-06T14:52:28;22.30;99.90
20288;DHT22;10303;51.960;8.372;2023-08-06T14:54:55;22.30;99.90
20288;DHT22;10303;51.960;8.372;2023-08-06T14:57:21;22.20;99.90
20288;DHT22;10303;51.960;8.372;2023-08-06T14:59:53;22.20;99.90
20288;DHT22;10303;51.960;8.372;2023-08-06T15:02:19;22.20;99.90
20288;DHT22;10303;51.960;8.372;2023-08-06T15:04:46;22.10;99.90
20288;DHT22;10303;51.960;8.372;2023-08-06T15:07:12;22.10;99.90
20288;DHT22;10303;51.960;8.372;2023-08-06T15:09:38;22.10;99.90
20288;DHT22;10303;51.960;8.372;2023-08-06T15:12:05;22.10;99.90
20288;DHT22;10303;51.960;8.372;2023-08-06T15:14:31;22.10;99.90
20288;DHT22;10303;51.960;8.372;2023-08-06T15:16:57;22.10;99.90
20288;DHT22;10303;51.960;8.372;2023-08-06T15:19:24;22.10;99.90
20288;DHT22;10303;51.960;8.372;2023-08-06T15:21:50;22.10;99.90
20288;DHT22;10303;51.960;8.372;2023-08-06T15:24:16;22.10;99.90
20288;DHT22;10303;51.960;8.372;2023-08-06T15:26:42;22.10;99.90
20288;DHT22;10303;51.960;8.372;2023-08-06T15:29:08;22.00;99.90
20288;DHT22;10303;51.960;8.372;2023-08-06T15:31:37;22.00;99.90
20288;DHT22;10303;51.960;8.372;2023-08-06T15:34:05;22.00;99.90
20288;DHT22;10303;51.960;8.372;2023-08-06T15:36:33;22.00;99.90
20288;DHT22;10303;51.960;8.372;2023-08-06T15:39:00;21.90;99.90